createdAt,value
2018-04-08T00:02:27.564Z,63.52
2018-04-08T00:04:56.825Z,63.49
2018-04-08T00:07:26.664Z,63.81
2018-04-08T00:09:55.886Z,63.86
2018-04-08T00:12:25.103Z,64.36
2018-04-08T00:14:54.282Z,64.43
2018-04-08T00:17:23.159Z,64.82
2018-04-08T00:19:52.921Z,65.10
2018-04-08T00:22:22.076Z,65.35
2018-04-08T00:24:51.231Z,65.51
2018-04-08T00:27:20.626Z,65.88
2018-04-08T00:29:50.136Z,65.91
2018-04-08T00:32:19.602Z,66.10
2018-04-08T00:34:48.790Z,66.51
2018-04-08T00:37:18.428Z,66.67
2018-04-08T00:39:48.312Z,67.01
2018-04-08T00:42:17.766Z,66.88
2018-04-08T00:44:46.889Z,67.00
2018-04-08T00:47:16.151Z,67.42
2018-04-08T00:49:45.527Z,68.09
2018-04-08T00:52:15.270Z,68.02
2018-04-08T00:54:44.944Z,68.15
2018-04-08T00:57:13.914Z,68.13
2018-04-08T00:59:42.929Z,68.37
2018-04-08T01:02:12.141Z,68.31
2018-04-08T01:04:41.385Z,69.19
2018-04-08T01:07:10.418Z,68.73
2018-04-08T01:09:39.443Z,69.14
2018-04-08T01:12:08.755Z,69.28
2018-04-08T01:14:38.318Z,69.23
2018-04-08T01:17:07.891Z,69.18
2018-04-08T01:19:37.042Z,69.31
2018-04-08T01:22:06.309Z,69.85
2018-04-08T01:24:35.790Z,70.22
2018-04-08T01:27:04.554Z,69.29
2018-04-08T01:29:34.221Z,69.33
2018-04-08T01:32:03.306Z,69.82
2018-04-08T01:34:32.299Z,69.64
2018-04-08T01:37:01.426Z,70.05
2018-04-08T01:39:30.474Z,70.26
2018-04-08T01:42:00.062Z,70.39
2018-04-08T01:44:29.110Z,69.96
2018-04-08T01:46:58.464Z,70.54
2018-04-08T01:49:27.486Z,71.13
2018-04-08T01:51:56.565Z,70.98
2018-04-08T01:54:25.379Z,71.08
2018-04-08T01:56:54.589Z,70.93
2018-04-08T01:59:23.955Z,70.92
2018-04-08T02:01:53.111Z,71.60
2018-04-08T02:04:22.359Z,71.60
2018-04-08T02:06:57.943Z,71.72
2018-04-08T02:09:27.186Z,72.13
2018-04-08T02:11:56.442Z,72.41
2018-04-08T02:14:25.674Z,72.94
2018-04-08T02:16:54.470Z,72.75
2018-04-08T02:19:23.420Z,73.64
2018-04-08T02:21:52.718Z,73.65
2018-04-08T02:24:22.065Z,73.67
2018-04-08T02:26:51.238Z,72.47
2018-04-08T02:29:20.396Z,72.50
2018-04-08T02:31:49.642Z,73.10
2018-04-08T02:34:19.178Z,72.85
2018-04-08T02:36:48.444Z,72.66
2018-04-08T02:39:17.585Z,72.07
2018-04-08T02:41:47.248Z,71.62
2018-04-08T02:44:16.500Z,71.80
2018-04-08T02:46:45.532Z,71.91
2018-04-08T02:49:14.787Z,71.75
2018-04-08T02:51:44.035Z,71.42
2018-04-08T02:54:13.336Z,71.86
2018-04-08T02:56:42.525Z,71.13
2018-04-08T02:59:11.754Z,71.45
2018-04-08T03:01:40.670Z,70.98
2018-04-08T03:04:09.533Z,70.57
2018-04-08T03:06:38.867Z,70.20
2018-04-08T03:09:08.509Z,70.35
2018-04-08T03:11:37.706Z,70.06
2018-04-08T03:14:06.750Z,70.31
2018-04-08T03:16:35.751Z,70.30
2018-04-08T03:19:05.072Z,70.68
2018-04-08T03:21:34.143Z,70.69
2018-04-08T03:24:03.737Z,71.18
2018-04-08T03:26:33.087Z,71.31
2018-04-08T03:29:02.197Z,71.29
2018-04-08T03:31:31.514Z,71.54
2018-04-08T03:34:00.994Z,71.92
2018-04-08T03:36:29.921Z,71.39
2018-04-08T03:38:58.952Z,71.21
2018-04-08T03:41:28.617Z,71.32
2018-04-08T03:43:57.928Z,71.27
2018-04-08T03:46:27.021Z,71.05
2018-04-08T03:48:56.498Z,69.95
2018-04-08T03:51:25.276Z,70.51
2018-04-08T03:53:54.567Z,70.83
2018-04-08T03:56:23.771Z,70.23
2018-04-08T03:58:59.343Z,70.15
2018-04-08T04:04:23.793Z,71.17
2018-04-08T04:06:52.282Z,71.39
2018-04-08T04:09:20.581Z,71.47
2018-04-08T04:11:48.963Z,70.85
2018-04-08T04:14:17.300Z,71.18
2018-04-08T04:16:45.687Z,70.64
2018-04-08T04:22:25.339Z,70.40
2018-04-08T04:25:02.572Z,70.66
2018-04-08T04:27:30.949Z,70.50
2018-04-08T04:29:59.192Z,70.91
2018-04-08T04:32:27.676Z,71.17
2018-04-08T04:34:56.264Z,70.97
2018-04-08T04:37:24.626Z,70.86
2018-04-08T04:39:53.090Z,71.24
2018-04-08T04:42:21.596Z,71.25
2018-04-08T04:44:49.854Z,70.71
2018-04-08T04:47:18.478Z,71.27
2018-04-08T04:49:46.847Z,70.94
2018-04-08T04:52:15.221Z,71.11
2018-04-08T04:54:43.477Z,71.12
2018-04-08T04:57:11.829Z,70.98
2018-04-08T04:59:40.096Z,71.04
2018-04-08T05:02:08.430Z,70.70
2018-04-08T05:04:36.918Z,71.09
2018-04-08T05:07:05.412Z,70.81
2018-04-08T05:09:33.867Z,70.94
2018-04-08T05:12:02.272Z,70.79
2018-04-08T05:14:30.682Z,70.63
2018-04-08T05:16:59.089Z,70.72
2018-04-08T05:19:27.576Z,70.58
2018-04-08T05:21:55.933Z,70.53
2018-04-08T05:24:24.244Z,70.43
2018-04-08T05:26:52.626Z,70.56
2018-04-08T05:29:21.050Z,70.04
2018-04-08T05:31:49.372Z,70.28
2018-04-08T05:34:17.667Z,69.96
2018-04-08T05:36:46.299Z,69.99
2018-04-08T05:39:14.753Z,69.77
2018-04-08T05:41:43.298Z,70.09
2018-04-08T05:44:11.596Z,69.36
2018-04-08T05:46:39.932Z,68.99
2018-04-08T05:49:08.358Z,69.01
2018-04-08T05:51:36.905Z,68.77
2018-04-08T05:54:05.579Z,68.80
2018-04-08T05:56:34.124Z,68.69
2018-04-08T05:59:02.558Z,68.04
2018-04-08T06:01:31.027Z,67.56
2018-04-08T06:03:59.523Z,67.67
2018-04-08T06:06:27.864Z,67.11
2018-04-08T06:08:56.167Z,66.86
2018-04-08T06:11:24.461Z,66.71
2018-04-08T06:13:52.745Z,66.19
2018-04-08T06:16:21.102Z,66.09
2018-04-08T06:18:49.436Z,65.97
2018-04-08T06:21:17.858Z,65.54
2018-04-08T06:23:46.263Z,65.32
2018-04-08T06:26:14.592Z,64.64
2018-04-08T06:28:43.160Z,64.35
2018-04-08T06:31:11.653Z,64.33
2018-04-08T06:33:40.394Z,63.78
2018-04-08T06:36:08.845Z,63.57
2018-04-08T06:38:37.156Z,62.97
2018-04-08T06:41:05.647Z,63.11
2018-04-08T06:43:33.997Z,62.47
2018-04-08T06:46:02.274Z,61.38
2018-04-08T06:48:30.587Z,61.84
2018-04-08T06:50:58.969Z,61.56
2018-04-08T06:53:27.474Z,61.23
2018-04-08T06:55:55.812Z,60.91
2018-04-08T06:58:24.128Z,60.61
2018-04-08T07:00:52.584Z,60.15
2018-04-08T07:03:20.878Z,59.45
2018-04-08T07:05:49.306Z,59.32
2018-04-08T07:08:17.643Z,58.91
2018-04-08T07:10:45.985Z,59.29
2018-04-08T07:13:14.394Z,59.20
2018-04-08T07:15:42.720Z,58.55
2018-04-08T07:18:11.082Z,58.28
2018-04-08T07:20:39.575Z,57.93
2018-04-08T07:23:07.989Z,58.03
2018-04-08T07:25:36.309Z,57.47
2018-04-08T07:28:04.597Z,58.01
2018-04-08T07:30:33.081Z,57.77
2018-04-08T07:33:01.558Z,57.88
2018-04-08T07:35:30.113Z,57.31
2018-04-08T07:37:58.698Z,57.01
2018-04-08T07:40:27.036Z,57.04
2018-04-08T07:42:55.472Z,56.94
2018-04-08T07:45:25.035Z,56.53
2018-04-08T07:47:54.328Z,56.29
2018-04-08T07:50:22.760Z,56.24
2018-04-08T07:52:51.137Z,55.44
2018-04-08T07:55:19.460Z,55.01
2018-04-08T07:57:47.749Z,54.72
2018-04-08T08:00:16.047Z,55.13
2018-04-08T08:02:44.377Z,54.77
2018-04-08T08:05:12.766Z,55.15
2018-04-08T08:07:41.101Z,54.24
2018-04-08T08:10:09.452Z,54.24
2018-04-08T08:12:37.778Z,54.08
2018-04-08T08:15:06.092Z,54.06
2018-04-08T08:17:34.392Z,53.63
2018-04-08T08:20:02.735Z,53.17
2018-04-08T08:22:31.393Z,53.21
2018-04-08T08:24:59.657Z,53.20
2018-04-08T08:27:27.985Z,53.47
2018-04-08T08:29:56.286Z,52.68
2018-04-08T08:32:24.705Z,52.56
2018-04-08T08:34:53.044Z,52.61
2018-04-08T08:37:21.429Z,51.38
2018-04-08T08:39:49.814Z,51.31
2018-04-08T08:42:18.156Z,51.55
2018-04-08T08:44:46.454Z,51.56
2018-04-08T08:47:15.940Z,52.32
2018-04-08T08:49:44.843Z,51.76
2018-04-08T08:52:13.305Z,51.36
2018-04-08T08:54:41.772Z,51.26
2018-04-08T08:57:10.269Z,50.39
2018-04-08T09:06:26.066Z,49.53
2018-04-08T09:08:54.320Z,49.21
2018-04-08T09:11:22.825Z,49.31
2018-04-08T09:13:51.114Z,49.84
2018-04-08T09:16:19.472Z,49.60
2018-04-08T09:18:47.818Z,48.76
2018-04-08T09:21:16.450Z,48.98
2018-04-08T09:23:59.280Z,48.26
2018-04-08T09:26:27.935Z,48.60
2018-04-08T09:28:56.474Z,47.89
2018-04-08T09:31:25.043Z,48.07
2018-04-08T09:33:53.428Z,47.69
2018-04-08T09:36:22.006Z,46.97
2018-04-08T09:38:50.394Z,47.00
2018-04-08T09:41:18.949Z,45.61
2018-04-08T09:43:47.312Z,46.24
2018-04-08T09:46:15.638Z,45.93
2018-04-08T09:48:43.962Z,45.57
2018-04-08T09:51:12.534Z,45.89
2018-04-08T09:53:40.944Z,46.02
2018-04-08T09:56:10.550Z,45.71
2018-04-08T09:58:39.209Z,45.93
2018-04-08T10:01:11.769Z,45.35
2018-04-08T10:03:42.087Z,44.60
2018-04-08T10:06:10.445Z,45.19
2018-04-08T10:08:38.722Z,44.99
2018-04-08T10:11:07.137Z,44.47
2018-04-08T10:13:35.605Z,43.99
2018-04-08T10:16:04.152Z,43.81
2018-04-08T10:18:32.703Z,43.67
2018-04-08T10:21:01.028Z,43.47
2018-04-08T10:23:29.381Z,43.26
2018-04-08T10:25:57.961Z,42.34
2018-04-08T10:28:26.393Z,42.13
2018-04-08T10:30:54.838Z,42.45
2018-04-08T10:33:23.164Z,42.80
2018-04-08T10:35:52.310Z,41.79
2018-04-08T10:38:20.984Z,41.93
2018-04-08T10:40:49.473Z,40.74
2018-04-08T10:43:18.120Z,40.34
2018-04-08T10:45:46.519Z,39.99
2018-04-08T10:48:14.829Z,39.13
2018-04-08T10:50:43.469Z,39.00
2018-04-08T10:53:11.764Z,39.00
2018-04-08T10:55:40.193Z,39.61
2018-04-08T10:58:12.833Z,38.30
2018-04-08T11:00:41.626Z,37.44
2018-04-08T11:03:10.449Z,37.37
2018-04-08T11:05:38.848Z,36.85
2018-04-08T11:08:07.613Z,36.17
2018-04-08T11:10:36.028Z,35.94
2018-04-08T11:13:04.417Z,35.30
2018-04-08T11:15:32.728Z,34.92
2018-04-08T11:18:01.004Z,34.45
2018-04-08T11:20:29.296Z,33.00
2018-04-08T11:22:57.631Z,33.45
2018-04-08T11:25:26.164Z,33.81
2018-04-08T11:27:54.616Z,32.02
2018-04-08T11:30:22.906Z,32.99
2018-04-08T11:32:51.169Z,32.07
2018-04-08T11:35:19.473Z,32.60
2018-04-08T11:37:47.765Z,31.19
2018-04-08T11:40:16.085Z,32.74
2018-04-08T11:42:44.638Z,31.87
2018-04-08T11:45:13.115Z,31.61
2018-04-08T11:47:41.409Z,31.38
2018-04-08T11:50:09.808Z,31.46
2018-04-08T11:52:38.188Z,31.33
2018-04-08T11:55:06.662Z,31.16
2018-04-08T11:57:35.306Z,31.00
2018-04-08T12:00:03.777Z,30.08
2018-04-08T12:02:32.270Z,29.54
2018-04-08T12:05:00.799Z,29.93
2018-04-08T12:07:29.293Z,29.87
2018-04-08T12:09:58.855Z,28.73
2018-04-08T12:12:27.279Z,29.69
2018-04-08T12:14:55.686Z,29.24
2018-04-08T12:17:24.058Z,28.29
2018-04-08T12:19:52.545Z,28.02
2018-04-08T12:22:21.040Z,27.21
2018-04-08T12:24:49.625Z,27.10
2018-04-08T12:27:23.931Z,25.17
2018-04-08T12:29:52.481Z,25.70
2018-04-08T12:32:20.793Z,26.78
2018-04-08T12:34:49.182Z,25.92
2018-04-08T12:37:17.547Z,24.97
2018-04-08T12:39:45.998Z,24.87
2018-04-08T12:42:14.302Z,25.13
2018-04-08T12:44:44.246Z,24.41
2018-04-08T12:47:12.736Z,25.14
2018-04-08T12:49:41.673Z,23.21
2018-04-08T12:52:10.084Z,23.77
2018-04-08T12:54:38.381Z,24.61
2018-04-08T12:57:06.829Z,23.44
2018-04-08T12:59:35.245Z,23.49
2018-04-08T13:02:04.050Z,24.38
2018-04-08T13:04:32.569Z,22.64
2018-04-08T13:07:01.213Z,24.75
2018-04-08T13:09:29.707Z,23.41
2018-04-08T13:11:58.030Z,23.55
2018-04-08T13:14:26.289Z,24.59
2018-04-08T13:16:54.697Z,22.94
2018-04-08T13:19:23.015Z,21.95
2018-04-08T13:21:51.545Z,23.32
2018-04-08T13:24:20.044Z,22.87
2018-04-08T13:26:48.606Z,22.56
2018-04-08T13:29:16.969Z,23.32
2018-04-08T13:31:47.129Z,22.94
2018-04-08T13:34:15.456Z,24.04
2018-04-08T13:36:44.217Z,25.35
2018-04-08T13:39:12.917Z,24.09
2018-04-08T13:41:41.368Z,23.07
2018-04-08T13:44:09.892Z,23.07
2018-04-08T13:46:38.230Z,23.14
2018-04-08T13:49:06.550Z,23.95
2018-04-08T13:51:34.885Z,22.57
2018-04-08T13:54:03.294Z,24.19
2018-04-08T13:56:31.700Z,23.44
2018-04-08T13:59:00.199Z,23.55
2018-04-08T14:01:28.568Z,22.55
2018-04-08T14:03:57.064Z,24.27
2018-04-08T14:06:25.373Z,23.88
2018-04-08T14:08:53.691Z,22.65
2018-04-08T14:11:22.133Z,22.96
2018-04-08T14:13:50.537Z,22.56
2018-04-08T14:16:18.978Z,23.26
2018-04-08T14:18:47.643Z,24.08
2018-04-08T14:21:17.918Z,27.07
2018-04-08T14:23:46.311Z,30.15
2018-04-08T14:26:14.887Z,31.50
2018-04-08T14:28:43.238Z,31.25
2018-04-08T14:31:11.558Z,31.81
2018-04-08T14:33:39.881Z,32.08
2018-04-08T14:36:08.256Z,33.26
2018-04-08T14:38:36.556Z,33.19
2018-04-08T14:41:05.009Z,33.92
2018-04-08T14:43:33.353Z,34.26
2018-04-08T14:46:02.666Z,34.52
2018-04-08T14:48:32.299Z,33.99
2018-04-08T14:51:00.993Z,34.12
2018-04-08T14:53:30.411Z,34.85
2018-04-08T14:55:58.868Z,34.96
2018-04-08T14:58:27.331Z,35.04
2018-04-08T15:00:55.842Z,34.33
2018-04-08T15:03:24.648Z,34.30
2018-04-08T15:05:53.299Z,34.60
2018-04-08T15:08:21.650Z,34.69
2018-04-08T15:10:50.537Z,35.27
2018-04-08T15:13:19.185Z,35.49
2018-04-08T15:15:47.544Z,35.71
2018-04-08T15:18:15.974Z,36.07
2018-04-08T15:20:45.337Z,36.35
2018-04-08T15:23:13.772Z,36.50
2018-04-08T15:25:42.196Z,36.66
2018-04-08T15:28:10.656Z,36.54
2018-04-08T15:30:39.263Z,36.95
2018-04-08T15:33:07.598Z,36.73
2018-04-08T15:35:35.989Z,36.58
2018-04-08T15:38:04.338Z,37.04
2018-04-08T15:40:32.708Z,37.36
2018-04-08T15:43:01.060Z,37.22
2018-04-08T15:45:29.529Z,37.44
2018-04-08T15:47:57.872Z,37.41
2018-04-08T15:50:26.259Z,37.54
2018-04-08T15:52:54.692Z,38.00
2018-04-08T15:55:23.184Z,37.94
2018-04-08T15:57:52.232Z,38.17
2018-04-08T16:00:21.213Z,38.10
2018-04-08T16:02:50.055Z,38.31
2018-04-08T16:05:19.030Z,38.71
2018-04-08T16:07:47.448Z,38.83
2018-04-08T16:10:15.894Z,38.90
2018-04-08T16:12:44.320Z,39.23
2018-04-08T16:15:12.712Z,39.50
2018-04-08T16:17:40.984Z,39.66
2018-04-08T16:20:09.467Z,39.90
2018-04-08T16:22:37.765Z,40.07
2018-04-08T16:25:06.089Z,40.17
2018-04-08T16:27:34.463Z,40.10
2018-04-08T16:30:02.986Z,40.53
2018-04-08T16:32:31.353Z,41.08
2018-04-08T16:34:59.612Z,40.98
2018-04-08T16:37:28.025Z,41.24
2018-04-08T16:39:56.342Z,41.33
2018-04-08T16:42:24.679Z,41.76
2018-04-08T16:44:52.970Z,41.77
2018-04-08T16:47:28.300Z,42.17
2018-04-08T16:49:56.834Z,42.28
2018-04-08T16:52:25.638Z,42.63
2018-04-08T16:54:53.973Z,42.65
2018-04-08T16:57:22.369Z,42.94
2018-04-08T16:59:50.781Z,43.08
2018-04-08T17:02:19.308Z,43.78
2018-04-08T17:04:47.660Z,44.18
2018-04-08T17:07:16.008Z,44.14
2018-04-08T17:09:44.575Z,44.59
2018-04-08T17:12:12.939Z,44.61
2018-04-08T17:14:41.445Z,44.82
2018-04-08T17:17:09.943Z,45.57
2018-04-08T17:19:38.421Z,45.55
2018-04-08T17:22:06.824Z,45.78
2018-04-08T17:24:35.148Z,45.85
2018-04-08T17:27:03.559Z,46.29
2018-04-08T17:29:31.867Z,47.00
2018-04-08T17:32:00.404Z,47.06
2018-04-08T17:34:28.688Z,47.55
2018-04-08T17:36:56.997Z,48.44
2018-04-08T17:39:25.557Z,50.21
2018-04-08T17:41:53.966Z,49.34
2018-04-08T17:44:22.824Z,52.90
2018-04-08T17:46:52.043Z,52.90
2018-04-08T17:49:20.656Z,52.14
2018-04-08T17:51:48.964Z,54.26
2018-04-08T17:54:17.254Z,56.46
2018-04-08T17:56:45.621Z,56.09
2018-04-08T17:59:13.916Z,56.97
2018-04-08T18:01:42.245Z,56.45
2018-04-08T18:04:12.664Z,58.86
2018-04-08T18:06:41.579Z,60.10
2018-04-08T18:09:12.427Z,59.92
2018-04-08T18:11:40.808Z,59.36
2018-04-08T18:14:10.052Z,60.64
2018-04-08T18:16:39.212Z,60.75
2018-04-08T18:19:07.927Z,60.94
2018-04-08T18:21:37.704Z,61.14
2018-04-08T18:24:06.418Z,61.64
2018-04-08T18:26:34.766Z,61.43
2018-04-08T18:29:03.126Z,62.47
2018-04-08T18:31:35.038Z,62.32
2018-04-08T18:34:04.276Z,62.70
2018-04-08T18:36:32.709Z,62.84
2018-04-08T18:39:01.748Z,62.20
2018-04-08T18:41:30.177Z,62.29
2018-04-08T18:43:58.616Z,60.83
2018-04-08T18:46:26.997Z,62.53
2018-04-08T18:48:55.327Z,62.54
2018-04-08T18:51:23.823Z,59.37
2018-04-08T18:53:52.148Z,58.45
2018-04-08T18:56:20.468Z,58.37
2018-04-08T18:58:48.789Z,58.48
2018-04-08T19:01:17.101Z,59.51
2018-04-08T19:03:45.384Z,62.20
2018-04-08T19:06:13.724Z,64.64
2018-04-08T19:08:43.786Z,63.57
2018-04-08T19:11:13.681Z,63.15
2018-04-08T19:13:42.027Z,63.91
2018-04-08T19:16:12.503Z,64.31
2018-04-08T19:18:44.477Z,63.68
2018-04-08T19:21:13.464Z,65.42
2018-04-08T19:23:44.217Z,65.24
2018-04-08T19:26:12.758Z,66.59
2018-04-08T19:28:41.204Z,65.72
2018-04-08T19:31:10.575Z,65.34
2018-04-08T19:33:38.936Z,65.21
2018-04-08T19:36:07.277Z,65.84
2018-04-08T19:38:35.573Z,66.79
2018-04-08T19:41:10.620Z,67.63
2018-04-08T19:43:39.200Z,67.50
2018-04-08T19:46:07.745Z,67.78
2018-04-08T19:48:36.009Z,68.79
2018-04-08T19:51:04.522Z,68.82
2018-04-08T19:53:33.005Z,68.26
2018-04-08T19:56:01.412Z,69.53
2018-04-08T19:58:30.541Z,69.63
2018-04-08T20:00:58.925Z,70.96
2018-04-08T20:03:27.229Z,71.50
2018-04-08T20:05:55.620Z,70.67
2018-04-08T20:08:23.915Z,70.16
2018-04-08T20:10:52.225Z,71.20
2018-04-08T20:13:20.517Z,71.16
2018-04-08T20:15:48.944Z,71.73
2018-04-08T20:18:17.234Z,71.88
2018-04-08T20:20:45.568Z,73.33
2018-04-08T20:25:48.364Z,72.22
2018-04-08T20:28:16.852Z,73.80
2018-04-08T20:30:45.223Z,73.72
2018-04-08T20:33:13.557Z,75.51
2018-04-08T20:35:41.942Z,74.99
2018-04-08T20:38:10.346Z,75.70
2018-04-08T20:40:38.848Z,74.79
2018-04-08T20:43:07.184Z,75.36
2018-04-08T20:45:35.560Z,75.24
2018-04-08T20:48:04.026Z,75.19
2018-04-08T20:50:32.587Z,75.14
2018-04-08T20:53:01.037Z,75.23
2018-04-08T20:55:29.378Z,76.44
2018-04-08T20:57:57.774Z,76.01
2018-04-08T21:00:26.315Z,75.75
2018-04-08T21:02:55.177Z,76.11
2018-04-08T21:05:23.559Z,76.95
2018-04-08T21:07:51.905Z,77.34
2018-04-08T21:10:20.234Z,76.61
2018-04-08T21:12:48.538Z,76.66
2018-04-08T21:15:17.008Z,77.20
2018-04-08T21:17:45.417Z,77.81
2018-04-08T21:20:14.076Z,78.45
2018-04-08T21:22:42.505Z,79.31
2018-04-08T21:25:11.109Z,78.22
2018-04-08T21:27:39.648Z,78.05
2018-04-08T21:30:08.161Z,79.12
2018-04-08T21:32:36.555Z,78.86
2018-04-08T21:35:04.922Z,78.75
2018-04-08T21:37:33.205Z,78.60
2018-04-08T21:40:02.254Z,78.93
2018-04-08T21:42:30.819Z,79.86
2018-04-08T21:44:59.248Z,79.85
2018-04-08T21:47:27.664Z,79.71
2018-04-08T21:49:56.609Z,79.33
2018-04-08T21:52:25.020Z,79.29
2018-04-08T21:54:53.322Z,79.78
2018-04-08T21:57:21.898Z,79.73
2018-04-08T21:59:51.049Z,79.82
2018-04-08T22:02:19.472Z,80.34
2018-04-08T22:04:48.329Z,80.82
2018-04-08T22:07:16.938Z,80.04
2018-04-08T22:09:45.721Z,79.62
2018-04-08T22:12:14.173Z,79.45
2018-04-08T22:14:42.533Z,80.85
2018-04-08T22:17:10.895Z,80.00
2018-04-08T22:19:39.388Z,80.25
2018-04-08T22:22:07.919Z,80.38
2018-04-08T22:24:36.234Z,80.60
2018-04-08T22:27:04.678Z,82.04
2018-04-08T22:29:33.145Z,82.66
2018-04-08T22:32:01.477Z,81.67
2018-04-08T22:34:29.914Z,81.89
2018-04-08T22:36:58.236Z,81.97
2018-04-08T22:39:28.143Z,81.93
2018-04-08T22:41:57.126Z,82.52
2018-04-08T22:44:25.620Z,82.12
2018-04-08T22:46:54.202Z,82.58
2018-04-08T22:49:22.489Z,82.83
2018-04-08T22:51:50.912Z,82.47
2018-04-08T22:54:19.313Z,82.26
2018-04-08T22:56:48.683Z,81.85
2018-04-08T22:59:17.593Z,81.80
2018-04-08T23:01:46.934Z,81.67
2018-04-08T23:04:15.260Z,82.87
2018-04-08T23:06:43.897Z,83.60
2018-04-08T23:09:12.684Z,83.96
2018-04-08T23:11:41.054Z,84.37
2018-04-08T23:14:09.340Z,84.68
2018-04-08T23:16:37.988Z,84.43
2018-04-08T23:19:06.597Z,84.97
2018-04-08T23:21:35.021Z,83.92
2018-04-08T23:24:03.428Z,84.91
2018-04-08T23:26:31.898Z,85.61
2018-04-08T23:29:00.198Z,85.38
2018-04-08T23:31:28.729Z,84.60
2018-04-08T23:33:57.072Z,84.99
2018-04-08T23:36:25.512Z,85.19
2018-04-08T23:38:54.280Z,85.71
2018-04-08T23:41:22.610Z,85.16
2018-04-08T23:43:50.916Z,85.30
2018-04-08T23:46:19.237Z,86.05
2018-04-08T23:48:47.551Z,85.75
2018-04-08T23:51:15.996Z,85.42
2018-04-08T23:53:44.304Z,85.23
2018-04-08T23:56:12.634Z,85.32
2018-04-08T23:58:40.952Z,85.26
